Time;durP1;ratioP1;P1;durP2;ratioP2;P2;SDS_P1;SDS_P2;PMS_P1;PMS_P2;Temp;Humidity;BMP_temperature;BMP_pressure;BME280_temperature;BME280_humidity;BME280_pressure;Samples;Min_cycle;Max_cycle;Signal;HPM_P1;HPM_P2
2023/10/26 00:01:39;;;;;;;4.90;2.90;;;;;;;;;;5027797;28;20033;-68
2023/10/26 00:04:05;;;;;;;5.22;3.13;;;;;;;;;;5022690;28;20042;-68
2023/10/26 00:06:30;;;;;;;6.75;3.22;;;;;;;;;;5027236;28;20436;-68
2023/10/26 00:08:55;;;;;;;7.75;3.40;;;;;;;;;;5028488;28;20028;-66
2023/10/26 00:11:20;;;;;;;5.68;2.85;;;;;;;;;;5028185;28;20045;-68
2023/10/26 00:13:45;;;;;;;7.85;3.30;;;;;;;;;;5028835;28;20017;-68
2023/10/26 00:16:11;;;;;;;5.20;3.03;;;;;;;;;;5027674;28;20041;-68
2023/10/26 00:18:36;;;;;;;6.30;3.13;;;;;;;;;;5028763;28;20072;-68
2023/10/26 00:21:01;;;;;;;5.20;2.63;;;;;;;;;;5027002;28;20040;-68
2023/10/26 00:23:27;;;;;;;6.88;2.70;;;;;;;;;;5028700;28;20017;-69
2023/10/26 00:25:52;;;;;;;6.85;2.75;;;;;;;;;;5027074;28;20085;-70
2023/10/26 00:28:17;;;;;;;5.65;2.47;;;;;;;;;;5028669;28;20447;-68
2023/10/26 00:30:42;;;;;;;7.32;2.50;;;;;;;;;;5028280;28;20029;-69
2023/10/26 00:33:08;;;;;;;4.40;2.40;;;;;;;;;;5029154;28;20026;-68
2023/10/26 00:35:34;;;;;;;3.88;2.15;;;;;;;;;;5027889;28;20036;-67
2023/10/26 00:37:59;;;;;;;4.50;2.13;;;;;;;;;;5028779;28;20365;-69
2023/10/26 00:40:24;;;;;;;7.90;2.20;;;;;;;;;;5027455;28;20446;-66
2023/10/26 00:42:49;;;;;;;4.38;2.00;;;;;;;;;;5028152;28;20143;-69
2023/10/26 00:45:15;;;;;;;4.57;2.22;;;;;;;;;;5027017;28;20055;-69
2023/10/26 00:47:40;;;;;;;3.10;1.92;;;;;;;;;;5028677;28;20067;-69
2023/10/26 00:50:06;;;;;;;3.08;1.80;;;;;;;;;;5028414;28;20060;-67
2023/10/26 00:52:34;;;;;;;5.45;2.70;;;;;;;;;;5027902;28;20021;-69
2023/10/26 00:55:00;;;;;;;4.25;1.88;;;;;;;;;;5026535;28;20488;-68
2023/10/26 00:57:25;;;;;;;3.92;2.05;;;;;;;;;;5027982;28;20041;-67
2023/10/26 00:59:51;;;;;;;4.78;2.17;;;;;;;;;;5027735;28;20104;-68
2023/10/26 01:02:18;;;;;;;5.70;2.28;;;;;;;;;;5027329;28;20133;-65
2023/10/26 01:04:43;;;;;;;4.20;2.17;;;;;;;;;;5027218;28;20021;-66
2023/10/26 01:07:08;;;;;;;6.05;2.30;;;;;;;;;;5009162;28;20165;-68
2023/10/26 01:09:33;;;;;;;5.45;2.20;;;;;;;;;;5026547;28;20100;-66
2023/10/26 01:12:00;;;;;;;4.38;2.15;;;;;;;;;;5020764;28;20543;-68
2023/10/26 01:14:27;;;;;;;5.93;2.35;;;;;;;;;;5026643;28;20481;-68
2023/10/26 01:16:52;;;;;;;4.38;2.50;;;;;;;;;;5018523;28;20599;-67
2023/10/26 01:19:18;;;;;;;4.82;2.42;;;;;;;;;;5023438;28;20104;-69
2023/10/26 01:21:50;;;;;;;4.60;2.03;;;;;;;;;;5027799;28;20017;-66
2023/10/26 01:24:15;;;;;;;9.02;2.03;;;;;;;;;;5024202;28;20025;-68
2023/10/26 01:26:40;;;;;;;3.50;1.83;;;;;;;;;;5026232;28;20025;-69
2023/10/26 01:29:06;;;;;;;5.00;1.83;;;;;;;;;;5026416;28;20037;-67
2023/10/26 01:31:31;;;;;;;3.70;2.03;;;;;;;;;;5026057;28;20032;-69
2023/10/26 01:33:56;;;;;;;3.83;1.90;;;;;;;;;;5017910;28;20536;-68
2023/10/26 01:36:22;;;;;;;3.97;1.83;;;;;;;;;;5025199;28;20087;-69
2023/10/26 01:38:47;;;;;;;3.95;1.58;;;;;;;;;;5024833;28;20056;-69
2023/10/26 01:41:12;;;;;;;2.63;1.40;;;;;;;;;;5024920;28;20026;-65
2023/10/26 01:46:04;;;;;;;2.60;1.45;;;;;;;;;;5023158;28;20056;-62
2023/10/26 01:48:30;;;;;;;2.08;1.13;;;;;;;;;;5021238;28;20412;-65
2023/10/26 01:50:55;;;;;;;2.90;1.30;;;;;;;;;;5022475;28;20121;-66
2023/10/26 01:53:23;;;;;;;6.53;1.42;;;;;;;;;;5034144;28;20024;-68
2023/10/26 01:55:48;;;;;;;1.23;0.93;;;;;;;;;;5019702;28;20048;-66
2023/10/26 01:58:14;;;;;;;2.03;1.23;;;;;;;;;;5028140;28;20061;-63
2023/10/26 02:00:39;;;;;;;1.90;1.10;;;;;;;;;;5019156;28;20026;-66
2023/10/26 02:03:04;;;;;;;1.58;0.90;;;;;;;;;;5026965;28;20488;-66
2023/10/26 02:05:29;;;;;;;2.28;1.00;;;;;;;;;;5017692;28;20020;-66
2023/10/26 02:07:55;;;;;;;1.30;0.80;;;;;;;;;;5027836;28;20029;-65
2023/10/26 02:10:21;;;;;;;4.68;1.10;;;;;;;;;;5009376;28;20040;-66
2023/10/26 02:12:46;;;;;;;3.03;1.10;;;;;;;;;;5026890;28;20537;-66
2023/10/26 02:15:12;;;;;;;1.70;1.00;;;;;;;;;;5026347;28;20100;-64
2023/10/26 02:17:37;;;;;;;4.07;1.15;;;;;;;;;;5025861;28;20020;-66
2023/10/26 02:20:02;;;;;;;1.73;0.88;;;;;;;;;;5026692;28;20021;-65
2023/10/26 02:22:27;;;;;;;6.15;1.20;;;;;;;;;;5026427;28;20408;-66
2023/10/26 02:24:53;;;;;;;6.55;1.50;;;;;;;;;;5026537;28;20682;-62
2023/10/26 02:27:18;;;;;;;0.82;0.63;;;;;;;;;;5026420;28;20369;-66
2023/10/26 02:29:43;;;;;;;1.38;0.82;;;;;;;;;;5028305;28;20018;-65
2023/10/26 02:32:08;;;;;;;1.40;0.90;;;;;;;;;;5028842;28;20040;-67
2023/10/26 02:34:34;;;;;;;4.05;0.90;;;;;;;;;;5028321;28;20029;-65
2023/10/26 02:37:00;;;;;;;3.95;0.93;;;;;;;;;;5026756;28;20650;-67
2023/10/26 02:39:26;;;;;;;2.00;1.00;;;;;;;;;;5027602;28;20022;-65
2023/10/26 02:41:51;;;;;;;1.67;0.90;;;;;;;;;;5026560;28;20103;-66
2023/10/26 02:44:16;;;;;;;2.35;0.90;;;;;;;;;;5031063;28;20088;-65
2023/10/26 02:46:42;;;;;;;3.40;0.80;;;;;;;;;;5026346;28;20018;-63
2023/10/26 02:49:07;;;;;;;1.75;0.98;;;;;;;;;;5026842;28;20428;-65
2023/10/26 02:51:32;;;;;;;1.65;0.98;;;;;;;;;;5026432;28;20028;-64
2023/10/26 02:53:57;;;;;;;3.22;0.70;;;;;;;;;;5026418;28;20017;-66
2023/10/26 02:56:22;;;;;;;1.45;0.80;;;;;;;;;;5024968;28;20165;-65
2023/10/26 02:58:48;;;;;;;1.50;1.10;;;;;;;;;;5027509;28;20029;-64
2023/10/26 03:01:13;;;;;;;2.13;1.00;;;;;;;;;;5027557;28;20026;-66
2023/10/26 03:03:38;;;;;;;2.15;0.90;;;;;;;;;;5024983;28;20018;-65
2023/10/26 03:06:04;;;;;;;10.43;0.93;;;;;;;;;;5022634;28;20024;-66
2023/10/26 03:08:29;;;;;;;2.00;0.90;;;;;;;;;;5027909;28;20138;-65
2023/10/26 03:10:54;;;;;;;3.65;1.33;;;;;;;;;;5025447;28;20029;-65
2023/10/26 03:13:19;;;;;;;1.23;0.73;;;;;;;;;;5026275;28;20026;-64
2023/10/26 03:15:45;;;;;;;1.60;1.08;;;;;;;;;;5026662;28;20022;-65
2023/10/26 03:18:14;;;;;;;1.27;0.90;;;;;;;;;;5030001;28;20028;-63
2023/10/26 03:20:39;;;;;;;1.95;1.08;;;;;;;;;;5029230;28;20441;-64
2023/10/26 03:23:04;;;;;;;1.77;1.00;;;;;;;;;;5040417;28;20100;-65
2023/10/26 03:25:33;;;;;;;2.75;0.90;;;;;;;;;;5036690;28;20036;-63
2023/10/26 03:27:58;;;;;;;2.10;0.93;;;;;;;;;;5031150;28;20037;-62
2023/10/26 03:30:24;;;;;;;1.70;1.00;;;;;;;;;;5035935;28;20079;-65
2023/10/26 03:32:49;;;;;;;1.50;1.10;;;;;;;;;;5029434;28;20029;-65
2023/10/26 03:35:14;;;;;;;1.20;0.73;;;;;;;;;;5030455;28;20025;-65
2023/10/26 03:37:39;;;;;;;1.30;0.88;;;;;;;;;;5027793;28;20036;-65
2023/10/26 03:40:05;;;;;;;3.92;1.05;;;;;;;;;;5012030;28;20095;-67
2023/10/26 03:42:30;;;;;;;4.78;1.10;;;;;;;;;;5028760;28;20061;-65
2023/10/26 03:44:55;;;;;;;1.33;0.90;;;;;;;;;;5031167;28;20018;-64
2023/10/26 03:47:21;;;;;;;3.03;1.17;;;;;;;;;;5043015;28;20018;-66
2023/10/26 03:49:46;;;;;;;3.00;1.00;;;;;;;;;;5029057;28;20447;-63
2023/10/26 03:52:11;;;;;;;1.73;1.08;;;;;;;;;;5030194;28;20036;-63
2023/10/26 03:54:42;;;;;;;2.33;1.10;;;;;;;;;;5030367;28;20041;-65
2023/10/26 03:57:07;;;;;;;2.78;1.20;;;;;;;;;;5028261;28;20363;-64
2023/10/26 03:59:32;;;;;;;1.52;1.10;;;;;;;;;;5039740;28;20629;-65
2023/10/26 04:01:58;;;;;;;2.22;1.00;;;;;;;;;;5033930;28;20014;-62
2023/10/26 04:04:23;;;;;;;1.52;0.98;;;;;;;;;;5023025;28;20029;-65
2023/10/26 04:06:48;;;;;;;2.13;1.05;;;;;;;;;;5029435;28;20023;-65
2023/10/26 04:09:14;;;;;;;1.27;0.85;;;;;;;;;;5029031;28;20052;-66
2023/10/26 04:11:44;;;;;;;1.25;0.90;;;;;;;;;;5031794;28;20028;-62
2023/10/26 04:14:09;;;;;;;1.17;0.90;;;;;;;;;;5039149;28;20503;-65
2023/10/26 04:16:35;;;;;;;8.55;0.95;;;;;;;;;;5027769;28;20026;-64
2023/10/26 04:19:00;;;;;;;1.80;0.88;;;;;;;;;;5028856;28;20033;-66
2023/10/26 04:21:25;;;;;;;1.73;1.00;;;;;;;;;;5010258;28;20025;-66
2023/10/26 04:23:50;;;;;;;1.77;0.98;;;;;;;;;;5028231;28;20017;-64
2023/10/26 04:26:16;;;;;;;1.10;0.70;;;;;;;;;;5027807;28;20025;-64
2023/10/26 04:28:41;;;;;;;1.73;1.00;;;;;;;;;;5028661;28;20060;-66
2023/10/26 04:31:12;;;;;;;1.52;0.90;;;;;;;;;;5029442;28;20025;-64
2023/10/26 04:33:37;;;;;;;1.30;0.85;;;;;;;;;;5041466;28;20470;-61
2023/10/26 04:36:04;;;;;;;2.85;0.75;;;;;;;;;;5029643;28;20140;-64
2023/10/26 04:38:30;;;;;;;1.33;0.88;;;;;;;;;;5028854;28;20052;-63
2023/10/26 04:40:57;;;;;;;1.40;0.82;;;;;;;;;;5009418;28;20087;-65
2023/10/26 04:43:22;;;;;;;1.63;0.80;;;;;;;;;;5029015;28;20018;-65
2023/10/26 04:45:47;;;;;;;3.20;1.05;;;;;;;;;;5029731;28;20021;-65
2023/10/26 04:48:13;;;;;;;1.08;0.70;;;;;;;;;;5027597;28;20432;-65
2023/10/26 04:50:38;;;;;;;0.93;0.75;;;;;;;;;;5026150;28;20017;-64
2023/10/26 04:53:04;;;;;;;2.10;1.10;;;;;;;;;;5026474;28;20025;-66
2023/10/26 04:55:35;;;;;;;1.08;0.80;;;;;;;;;;5031234;28;20346;-62
2023/10/26 04:58:00;;;;;;;2.45;1.10;;;;;;;;;;5033692;28;20021;-65
2023/10/26 05:00:28;;;;;;;1.65;1.00;;;;;;;;;;5019907;28;20437;-64
2023/10/26 05:02:54;;;;;;;1.25;0.90;;;;;;;;;;5023619;28;20112;-67
2023/10/26 05:05:19;;;;;;;6.32;1.25;;;;;;;;;;5016678;28;20100;-65
2023/10/26 05:07:45;;;;;;;1.25;0.88;;;;;;;;;;5024583;28;20018;-65
2023/10/26 05:10:10;;;;;;;1.25;0.90;;;;;;;;;;5026358;28;20017;-65
2023/10/26 05:12:35;;;;;;;4.13;1.02;;;;;;;;;;5010563;28;20045;-67
2023/10/26 05:15:01;;;;;;;2.65;1.05;;;;;;;;;;5025993;28;20080;-65
2023/10/26 05:17:26;;;;;;;1.92;1.02;;;;;;;;;;5032941;28;20037;-65
2023/10/26 05:19:51;;;;;;;5.07;1.13;;;;;;;;;;5030302;28;20079;-65
2023/10/26 05:22:19;;;;;;;2.53;1.20;;;;;;;;;;5030617;28;20022;-61
2023/10/26 05:24:44;;;;;;;3.13;1.02;;;;;;;;;;5013075;28;20088;-64
2023/10/26 05:27:09;;;;;;;1.70;1.00;;;;;;;;;;5028255;28;20488;-63
2023/10/26 05:29:34;;;;;;;3.65;1.08;;;;;;;;;;5027180;28;20163;-63
2023/10/26 05:32:00;;;;;;;2.17;1.08;;;;;;;;;;5032236;28;20099;-65
2023/10/26 05:34:25;;;;;;;4.05;1.20;;;;;;;;;;5029871;28;20024;-65
2023/10/26 05:36:50;;;;;;;3.40;1.17;;;;;;;;;;5029873;28;20515;-65
2023/10/26 05:39:16;;;;;;;1.65;0.80;;;;;;;;;;5027437;28;20032;-66
2023/10/26 05:41:42;;;;;;;3.80;1.17;;;;;;;;;;5032119;28;20024;-65
2023/10/26 05:44:07;;;;;;;2.92;1.40;;;;;;;;;;5034226;28;20079;-65
2023/10/26 05:46:34;;;;;;;4.20;1.63;;;;;;;;;;5011315;28;20045;-66
2023/10/26 05:48:59;;;;;;;2.65;1.20;;;;;;;;;;5027974;28;20112;-64
2023/10/26 05:51:24;;;;;;;1.92;1.00;;;;;;;;;;5036558;28;20013;-64
2023/10/26 05:53:49;;;;;;;2.53;1.25;;;;;;;;;;5037854;28;20022;-65
2023/10/26 05:56:15;;;;;;;2.20;1.17;;;;;;;;;;5028886;28;20025;-65
2023/10/26 05:58:40;;;;;;;3.25;1.42;;;;;;;;;;5025598;28;20512;-66
2023/10/26 06:01:05;;;;;;;1.92;1.20;;;;;;;;;;5021748;28;20521;-61
2023/10/26 06:03:30;;;;;;;5.03;1.60;;;;;;;;;;5020034;28;20439;-65
2023/10/26 06:05:59;;;;;;;3.47;1.58;;;;;;;;;;5017601;28;20461;-65
2023/10/26 06:08:24;;;;;;;4.63;1.50;;;;;;;;;;5019789;28;20485;-66
2023/10/26 06:10:50;;;;;;;3.17;1.73;;;;;;;;;;5023978;28;20032;-65
2023/10/26 06:13:15;;;;;;;3.33;1.77;;;;;;;;;;5017382;28;20025;-63
2023/10/26 06:15:41;;;;;;;2.40;1.40;;;;;;;;;;5013124;28;20005;-65
2023/10/26 06:18:06;;;;;;;2.70;1.40;;;;;;;;;;5027146;28;20021;-65
2023/10/26 06:20:31;;;;;;;2.97;1.60;;;;;;;;;;5021433;28;20474;-65
2023/10/26 06:22:56;;;;;;;3.65;1.50;;;;;;;;;;5026165;28;20040;-63
2023/10/26 06:25:23;;;;;;;5.35;1.58;;;;;;;;;;5022768;28;20172;-64
2023/10/26 06:27:48;;;;;;;2.72;1.60;;;;;;;;;;5027016;28;20706;-64
2023/10/26 06:30:17;;;;;;;6.43;1.90;;;;;;;;;;5032668;28;20017;-65
2023/10/26 06:32:42;;;;;;;2.92;1.52;;;;;;;;;;5009524;28;20017;-65
2023/10/26 06:35:08;;;;;;;3.92;1.50;;;;;;;;;;5031467;28;20022;-63
2023/10/26 06:37:33;;;;;;;2.67;1.50;;;;;;;;;;5028534;28;20503;-65
2023/10/26 06:39:58;;;;;;;3.75;1.70;;;;;;;;;;5027809;28;20453;-65
2023/10/26 06:42:23;;;;;;;3.13;1.30;;;;;;;;;;5032471;28;20036;-64
2023/10/26 06:44:49;;;;;;;4.05;1.48;;;;;;;;;;5009985;28;20036;-65
2023/10/26 06:47:14;;;;;;;2.70;1.38;;;;;;;;;;5026082;28;20025;-61
2023/10/26 06:49:41;;;;;;;2.40;1.45;;;;;;;;;;5028636;28;20497;-65
2023/10/26 06:52:06;;;;;;;3.85;1.67;;;;;;;;;;5032692;28;20477;-62
2023/10/26 06:54:32;;;;;;;3.75;1.55;;;;;;;;;;5031851;28;20036;-65
2023/10/26 06:56:57;;;;;;;2.28;1.38;;;;;;;;;;5030627;28;20109;-63
2023/10/26 06:59:22;;;;;;;4.10;1.60;;;;;;;;;;5032226;28;20036;-65
2023/10/26 07:01:47;;;;;;;3.78;1.70;;;;;;;;;;5031991;28;20473;-66
2023/10/26 07:04:13;;;;;;;4.13;1.70;;;;;;;;;;5031724;28;20032;-65
2023/10/26 07:06:38;;;;;;;5.28;2.03;;;;;;;;;;5013294;28;20091;-65
2023/10/26 07:09:03;;;;;;;3.08;1.88;;;;;;;;;;5032169;28;20024;-63
2023/10/26 07:11:29;;;;;;;3.67;1.95;;;;;;;;;;5031741;28;20021;-65
2023/10/26 07:13:54;;;;;;;2.80;1.45;;;;;;;;;;5030672;28;20455;-66
2023/10/26 07:16:19;;;;;;;3.60;1.85;;;;;;;;;;5036204;28;20108;-65
2023/10/26 07:18:44;;;;;;;3.08;1.60;;;;;;;;;;5031406;28;20323;-64
2023/10/26 07:21:10;;;;;;;3.13;1.48;;;;;;;;;;5029216;28;20542;-64
2023/10/26 07:23:35;;;;;;;3.58;1.75;;;;;;;;;;5031573;28;20067;-65
2023/10/26 07:26:02;;;;;;;3.58;1.77;;;;;;;;;;5034718;28;20542;-64
2023/10/26 07:28:27;;;;;;;3.03;1.80;;;;;;;;;;5031343;28;20018;-65
2023/10/26 07:30:52;;;;;;;5.43;2.00;;;;;;;;;;5031209;28;20025;-61
2023/10/26 07:33:20;;;;;;;4.97;1.67;;;;;;;;;;5033435;28;20552;-64
2023/10/26 07:35:52;;;;;;;3.72;1.85;;;;;;;;;;5026893;28;20022;-64
2023/10/26 07:38:18;;;;;;;5.68;2.05;;;;;;;;;;5027756;28;20053;-64
2023/10/26 07:40:49;;;;;;;5.53;1.90;;;;;;;;;;5031396;28;20061;-61
2023/10/26 07:43:15;;;;;;;2.92;1.83;;;;;;;;;;5048878;23;20456;-66
2023/10/26 07:45:40;;;;;;;2.85;1.73;;;;;;;;;;5025179;28;20622;-68
2023/10/26 07:48:05;;;;;;;4.60;1.70;;;;;;;;;;5028764;28;20103;-67
2023/10/26 07:50:30;;;;;;;3.55;1.70;;;;;;;;;;5022114;28;20079;-68
2023/10/26 07:52:56;;;;;;;4.93;1.75;;;;;;;;;;5032080;28;20059;-66
2023/10/26 07:55:21;;;;;;;5.38;2.15;;;;;;;;;;5031217;28;20044;-67
2023/10/26 07:57:46;;;;;;;8.68;1.98;;;;;;;;;;5029080;28;20606;-66
2023/10/26 08:00:12;;;;;;;4.18;2.25;;;;;;;;;;5028355;28;20035;-69
2023/10/26 08:02:37;;;;;;;5.20;2.03;;;;;;;;;;5035616;28;20029;-68
2023/10/26 08:05:03;;;;;;;6.65;1.80;;;;;;;;;;5027798;28;20608;-68
2023/10/26 08:07:29;;;;;;;4.97;2.05;;;;;;;;;;5011106;28;20065;-67
2023/10/26 08:09:54;;;;;;;3.45;1.98;;;;;;;;;;5023276;28;20093;-67
2023/10/26 08:12:19;;;;;;;8.90;2.40;;;;;;;;;;5028260;28;20029;-67
2023/10/26 08:14:44;;;;;;;5.05;2.20;;;;;;;;;;5026811;28;20021;-68
2023/10/26 08:17:10;;;;;;;5.95;2.33;;;;;;;;;;5025954;28;20021;-67
2023/10/26 08:19:35;;;;;;;4.22;2.25;;;;;;;;;;5029047;28;20036;-68
2023/10/26 08:22:00;;;;;;;5.43;2.28;;;;;;;;;;5037007;28;20512;-69
2023/10/26 08:24:27;;;;;;;9.80;2.90;;;;;;;;;;5029304;28;20580;-66
2023/10/26 08:26:53;;;;;;;5.50;2.05;;;;;;;;;;5035870;28;20025;-68
2023/10/26 08:29:19;;;;;;;5.65;2.60;;;;;;;;;;5026216;28;20036;-68
2023/10/26 08:31:44;;;;;;;4.40;2.35;;;;;;;;;;5030627;28;20469;-68
2023/10/26 08:34:10;;;;;;;4.80;2.38;;;;;;;;;;5033043;28;20037;-68
2023/10/26 08:36:35;;;;;;;6.43;2.95;;;;;;;;;;5024732;28;20044;-68
2023/10/26 08:39:00;;;;;;;4.28;2.20;;;;;;;;;;5029872;28;20048;-66
2023/10/26 08:41:26;;;;;;;6.55;2.17;;;;;;;;;;5027319;28;20022;-66
2023/10/26 08:43:51;;;;;;;5.32;2.45;;;;;;;;;;5036892;28;20044;-68
2023/10/26 08:46:17;;;;;;;6.85;2.50;;;;;;;;;;5026490;28;20136;-66
2023/10/26 08:48:43;;;;;;;5.45;2.20;;;;;;;;;;5033435;28;20428;-66
2023/10/26 08:51:08;;;;;;;6.03;1.90;;;;;;;;;;5028868;28;20048;-67
2023/10/26 08:53:34;;;;;;;3.53;1.60;;;;;;;;;;5010001;28;20041;-67
2023/10/26 08:56:00;;;;;;;4.03;1.98;;;;;;;;;;5027399;28;20086;-68
2023/10/26 08:58:25;;;;;;;3.90;1.60;;;;;;;;;;5024719;28;20078;-67
2023/10/26 09:00:51;;;;;;;3.88;1.63;;;;;;;;;;5027609;28;20670;-67
2023/10/26 09:03:16;;;;;;;3.08;1.58;;;;;;;;;;5019731;28;20024;-69
2023/10/26 09:05:52;;;;;;;10.02;1.92;;;;;;;;;;5025889;28;20065;-67
2023/10/26 09:08:18;;;;;;;3.58;1.70;;;;;;;;;;5034674;28;20421;-67
2023/10/26 09:10:43;;;;;;;3.40;1.40;;;;;;;;;;5036614;28;20098;-65
2023/10/26 09:13:08;;;;;;;3.30;1.70;;;;;;;;;;5027079;28;20633;-68
2023/10/26 09:15:47;;;;;;;3.80;1.63;;;;;;;;;;5032499;28;20056;-66
2023/10/26 09:18:15;;;;;;;3.22;1.85;;;;;;;;;;5036488;28;20096;-69
2023/10/26 09:20:40;;;;;;;3.28;1.63;;;;;;;;;;5029322;28;20057;-69
2023/10/26 09:23:05;;;;;;;3.58;1.58;;;;;;;;;;5026569;28;20060;-67
2023/10/26 09:25:30;;;;;;;6.00;1.67;;;;;;;;;;5026766;28;20098;-69
2023/10/26 09:28:00;;;;;;;5.10;1.70;;;;;;;;;;5027961;28;20025;-67
2023/10/26 09:30:28;;;;;;;3.85;1.73;;;;;;;;;;5025554;28;20025;-64
2023/10/26 09:32:53;;;;;;;5.50;1.77;;;;;;;;;;5026900;28;20033;-66
2023/10/26 09:35:26;;;;;;;4.65;1.88;;;;;;;;;;5030863;28;20152;-68
2023/10/26 09:37:51;;;;;;;4.28;1.40;;;;;;;;;;5009736;28;20082;-69
2023/10/26 09:40:16;;;;;;;3.33;1.50;;;;;;;;;;5022595;28;20033;-65
2023/10/26 09:42:42;;;;;;;4.35;1.73;;;;;;;;;;5016886;28;20021;-68
2023/10/26 09:45:07;;;;;;;5.60;1.90;;;;;;;;;;5023540;28;20061;-69
2023/10/26 09:47:33;;;;;;;2.38;1.25;;;;;;;;;;5037029;28;20418;-68
2023/10/26 09:49:58;;;;;;;2.85;1.45;;;;;;;;;;5020911;28;20397;-66
2023/10/26 09:52:23;;;;;;;3.80;1.70;;;;;;;;;;5020247;28;20068;-69
2023/10/26 09:54:49;;;;;;;3.58;1.55;;;;;;;;;;5022787;28;20096;-68
2023/10/26 09:57:28;;;;;;;3.78;1.73;;;;;;;;;;5022992;28;20376;-69
2023/10/26 09:59:53;;;;;;;4.65;1.50;;;;;;;;;;5016132;28;20066;-69
2023/10/26 10:02:19;;;;;;;4.32;1.95;;;;;;;;;;5026925;28;20148;-67
2023/10/26 10:04:45;;;;;;;3.08;1.60;;;;;;;;;;5025657;28;20021;-66
2023/10/26 10:07:17;;;;;;;2.55;1.35;;;;;;;;;;5026763;28;20481;-67
2023/10/26 10:10:18;;;;;;;3.85;1.80;;;;;;;;;;5019351;28;20021;-68
2023/10/26 10:12:51;;;;;;;6.38;1.67;;;;;;;;;;4936139;28;20074;-66
2023/10/26 10:15:17;;;;;;;2.85;1.30;;;;;;;;;;5011814;28;20039;-66
2023/10/26 10:17:42;;;;;;;18.90;2.70;;;;;;;;;;5024441;28;20066;-66
2023/10/26 10:20:14;;;;;;;12.43;2.55;;;;;;;;;;5027724;28;20182;-68
2023/10/26 10:22:48;;;;;;;3.13;1.30;;;;;;;;;;5036316;28;20410;-68
2023/10/26 10:25:14;;;;;;;2.67;1.20;;;;;;;;;;5025096;28;20052;-68
2023/10/26 10:27:40;;;;;;;2.38;1.10;;;;;;;;;;5025899;28;20033;-68
2023/10/26 10:30:09;;;;;;;2.78;1.00;;;;;;;;;;5026224;28;20017;-65
2023/10/26 10:32:44;;;;;;;1.10;1.00;;;;;;;;;;5031864;28;20100;-68
2023/10/26 10:35:10;;;;;;;2.22;1.20;;;;;;;;;;5028601;28;20514;-67
2023/10/26 10:37:36;;;;;;;1.88;0.90;;;;;;;;;;5027116;28;20021;-67
2023/10/26 10:40:16;;;;;;;2.72;1.40;;;;;;;;;;5030107;28;20034;-67
2023/10/26 10:42:46;;;;;;;1.10;0.80;;;;;;;;;;5029501;28;20403;-67
2023/10/26 10:45:11;;;;;;;2.95;1.30;;;;;;;;;;5026312;28;20032;-67
2023/10/26 10:47:37;;;;;;;4.30;1.10;;;;;;;;;;5034666;28;20014;-69
2023/10/26 10:50:21;;;;;;;2.65;1.33;;;;;;;;;;5033080;28;20053;-68
2023/10/26 10:52:47;;;;;;;2.13;1.00;;;;;;;;;;5013325;28;20029;-69
2023/10/26 10:55:19;;;;;;;2.85;0.98;;;;;;;;;;5018790;28;20101;-70
2023/10/26 10:57:50;;;;;;;2.60;1.13;;;;;;;;;;5034540;28;20018;-67
2023/10/26 11:00:16;;;;;;;2.17;1.10;;;;;;;;;;5025956;28;20434;-67
2023/10/26 11:02:52;;;;;;;5.55;1.02;;;;;;;;;;5022796;28;20445;-69
2023/10/26 11:05:17;;;;;;;1.83;0.95;;;;;;;;;;5025378;28;20040;-68
2023/10/26 11:07:43;;;;;;;1.77;0.82;;;;;;;;;;5011314;28;20018;-69
2023/10/26 11:10:08;;;;;;;1.42;0.82;;;;;;;;;;5025576;28;20021;-70
2023/10/26 11:12:33;;;;;;;4.57;1.85;;;;;;;;;;5026150;28;20037;-68
2023/10/26 11:14:59;;;;;;;1.20;0.93;;;;;;;;;;5029395;28;20025;-70
2023/10/26 11:17:24;;;;;;;1.45;0.90;;;;;;;;;;5025490;28;20483;-67
2023/10/26 11:19:50;;;;;;;3.17;1.40;;;;;;;;;;5032489;28;20097;-69
2023/10/26 11:22:16;;;;;;;2.13;1.05;;;;;;;;;;5034875;28;20112;-67
2023/10/26 11:24:42;;;;;;;2.00;1.00;;;;;;;;;;5035574;28;20060;-68
2023/10/26 11:27:07;;;;;;;5.50;1.20;;;;;;;;;;5035193;28;20374;-70
2023/10/26 11:29:33;;;;;;;3.07;1.10;;;;;;;;;;5026786;28;20033;-67
2023/10/26 11:31:58;;;;;;;12.40;2.95;;;;;;;;;;5039482;28;20255;-70
2023/10/26 11:34:26;;;;;;;3.17;0.95;;;;;;;;;;5031087;28;20552;-67
2023/10/26 11:36:52;;;;;;;3.70;1.13;;;;;;;;;;5010061;28;20477;-70
2023/10/26 11:39:18;;;;;;;5.07;1.20;;;;;;;;;;5036448;28;20101;-69
2023/10/26 11:41:51;;;;;;;3.83;1.20;;;;;;;;;;5039075;28;20111;-67
2023/10/26 11:44:23;;;;;;;1.67;0.90;;;;;;;;;;5028360;28;20647;-67
2023/10/26 11:46:55;;;;;;;2.72;1.10;;;;;;;;;;5023214;28;20018;-68
2023/10/26 11:49:22;;;;;;;2.97;1.30;;;;;;;;;;5024456;28;20565;-68
2023/10/26 11:51:47;;;;;;;3.33;0.95;;;;;;;;;;5026963;28;20029;-70
2023/10/26 11:54:13;;;;;;;6.32;1.52;;;;;;;;;;5034495;28;20029;-68
2023/10/26 11:56:38;;;;;;;2.95;1.17;;;;;;;;;;5022781;28;20120;-69
2023/10/26 11:59:04;;;;;;;2.33;1.20;;;;;;;;;;5029020;28;20061;-69
2023/10/26 12:01:29;;;;;;;1.90;1.00;;;;;;;;;;5035102;28;20112;-69
2023/10/26 12:03:54;;;;;;;2.03;0.90;;;;;;;;;;5028675;28;20101;-69
2023/10/26 12:06:19;;;;;;;5.07;1.20;;;;;;;;;;5028522;28;20029;-67
2023/10/26 12:08:45;;;;;;;6.65;2.58;;;;;;;;;;5029817;28;20009;-69
2023/10/26 12:11:11;;;;;;;2.08;1.02;;;;;;;;;;5028813;28;20093;-70
2023/10/26 12:13:36;;;;;;;2.45;1.23;;;;;;;;;;5021974;28;20064;-68
2023/10/26 12:16:01;;;;;;;3.53;0.85;;;;;;;;;;5017931;28;20025;-68
2023/10/26 12:18:27;;;;;;;3.72;1.30;;;;;;;;;;5014178;28;20018;-65
2023/10/26 12:20:52;;;;;;;3.05;1.13;;;;;;;;;;5027524;28;20025;-67
2023/10/26 12:23:17;;;;;;;1.85;0.80;;;;;;;;;;5021767;28;20056;-70
2023/10/26 12:25:43;;;;;;;2.10;1.17;;;;;;;;;;5027874;28;20044;-67
2023/10/26 12:28:08;;;;;;;2.13;0.90;;;;;;;;;;5027886;28;20473;-68
2023/10/26 12:30:33;;;;;;;3.97;1.55;;;;;;;;;;5028342;28;20017;-65
2023/10/26 12:32:58;;;;;;;1.88;1.00;;;;;;;;;;5036682;28;20069;-68
2023/10/26 12:35:24;;;;;;;1.17;0.77;;;;;;;;;;5031702;28;20179;-73
2023/10/26 12:37:49;;;;;;;1.80;1.00;;;;;;;;;;5045094;28;20459;-69
2023/10/26 12:40:15;;;;;;;2.85;1.17;;;;;;;;;;5032981;28;20037;-67
2023/10/26 12:42:41;;;;;;;3.72;1.50;;;;;;;;;;5030198;28;20029;-68
2023/10/26 12:45:06;;;;;;;4.18;1.20;;;;;;;;;;5036501;28;20040;-69
2023/10/26 12:47:31;;;;;;;2.17;1.10;;;;;;;;;;5028657;28;20033;-68
2023/10/26 12:49:57;;;;;;;2.55;1.27;;;;;;;;;;5026788;28;20091;-68
2023/10/26 12:52:22;;;;;;;4.63;1.52;;;;;;;;;;5028205;28;20063;-68
2023/10/26 12:54:47;;;;;;;2.47;1.10;;;;;;;;;;5028375;28;20029;-68
2023/10/26 12:57:13;;;;;;;3.70;1.13;;;;;;;;;;5026789;28;20370;-65
2023/10/26 12:59:38;;;;;;;4.30;1.08;;;;;;;;;;5028728;28;20025;-69
2023/10/26 13:02:03;;;;;;;3.58;1.15;;;;;;;;;;5040507;28;20052;-66
2023/10/26 13:04:28;;;;;;;2.35;1.15;;;;;;;;;;5026520;28;20116;-67
2023/10/26 13:06:53;;;;;;;1.92;1.10;;;;;;;;;;5025666;28;20120;-66
2023/10/26 13:09:19;;;;;;;5.57;1.10;;;;;;;;;;5027882;28;20088;-67
2023/10/26 13:11:44;;;;;;;3.40;1.40;;;;;;;;;;5026598;28;20048;-68
2023/10/26 13:14:09;;;;;;;1.48;0.90;;;;;;;;;;5026166;28;20028;-67
2023/10/26 13:16:34;;;;;;;1.75;1.10;;;;;;;;;;5024692;28;20017;-65
2023/10/26 13:19:00;;;;;;;2.92;1.13;;;;;;;;;;5025780;28;20037;-68
2023/10/26 13:21:25;;;;;;;2.05;1.20;;;;;;;;;;5025362;28;20083;-68
2023/10/26 13:23:50;;;;;;;4.00;1.38;;;;;;;;;;5026317;28;20159;-66
2023/10/26 13:26:15;;;;;;;2.42;1.17;;;;;;;;;;5023958;28;20458;-67
2023/10/26 13:28:41;;;;;;;5.53;2.00;;;;;;;;;;5025408;28;20078;-66
2023/10/26 13:31:06;;;;;;;3.42;1.42;;;;;;;;;;5027648;28;20476;-66
2023/10/26 13:33:32;;;;;;;2.83;1.33;;;;;;;;;;5028777;28;20021;-67
2023/10/26 13:35:58;;;;;;;2.78;1.30;;;;;;;;;;5030224;28;20091;-69
2023/10/26 13:38:23;;;;;;;2.70;1.35;;;;;;;;;;5030765;28;20033;-67
2023/10/26 13:40:48;;;;;;;2.03;1.10;;;;;;;;;;5026981;28;20911;-68
2023/10/26 13:43:16;;;;;;;2.53;1.40;;;;;;;;;;5024344;23;20021;-70
2023/10/26 13:45:42;;;;;;;3.95;1.67;;;;;;;;;;5006766;28;20060;-68
2023/10/26 13:48:08;;;;;;;6.30;1.20;;;;;;;;;;5012584;28;20109;-71
2023/10/26 13:50:33;;;;;;;2.38;1.20;;;;;;;;;;5017544;28;20021;-70
2023/10/26 13:52:59;;;;;;;4.38;1.30;;;;;;;;;;5011000;28;20061;-69
2023/10/26 13:55:25;;;;;;;4.97;1.23;;;;;;;;;;5008725;28;20084;-67
2023/10/26 13:57:50;;;;;;;1.40;1.00;;;;;;;;;;5029560;28;20017;-68
2023/10/26 14:00:16;;;;;;;1.52;0.88;;;;;;;;;;5026889;28;20022;-70
2023/10/26 14:02:41;;;;;;;2.10;1.40;;;;;;;;;;5028272;28;20056;-70
2023/10/26 14:05:07;;;;;;;2.40;1.13;;;;;;;;;;5026800;28;20017;-69
2023/10/26 14:07:32;;;;;;;1.70;0.95;;;;;;;;;;5028556;28;20187;-69
2023/10/26 14:09:57;;;;;;;1.40;0.88;;;;;;;;;;5027837;28;20412;-69
2023/10/26 14:12:22;;;;;;;3.00;1.30;;;;;;;;;;5027493;28;20053;-68
2023/10/26 14:14:48;;;;;;;1.83;1.02;;;;;;;;;;5026343;28;20013;-70
2023/10/26 14:17:13;;;;;;;3.17;1.30;;;;;;;;;;5021997;28;20060;-69
2023/10/26 14:19:38;;;;;;;2.33;1.05;;;;;;;;;;5024642;28;20052;-69
2023/10/26 14:22:04;;;;;;;2.63;1.15;;;;;;;;;;5028387;28;20025;-65
2023/10/26 14:24:29;;;;;;;3.58;1.27;;;;;;;;;;5026897;28;20369;-66
2023/10/26 14:26:54;;;;;;;4.72;1.40;;;;;;;;;;5026595;28;20469;-70
2023/10/26 14:29:20;;;;;;;2.35;1.13;;;;;;;;;;5027122;28;20052;-68
2023/10/26 14:31:45;;;;;;;2.28;1.10;;;;;;;;;;5025414;28;20036;-69
2023/10/26 14:34:10;;;;;;;1.95;1.00;;;;;;;;;;5026475;28;20068;-68
2023/10/26 14:36:35;;;;;;;2.72;1.30;;;;;;;;;;5025808;28;20045;-71
2023/10/26 14:39:01;;;;;;;1.83;1.10;;;;;;;;;;5024551;28;20498;-69